sensor_id;sensor_type;location;lat;lon;timestamp;pressure;altitude;pressure_sealevel;temperature;humidity
61963;BME280;47927;42.646;23.096;2023-05-19T00:01:27;92347.25;;;13.74;58.82
61963;BME280;47927;42.646;23.096;2023-05-19T00:03:55;92294.13;;;13.34;58.80
61963;BME280;47927;42.646;23.096;2023-05-19T00:06:23;92288.13;;;13.19;58.92
61963;BME280;47927;42.646;23.096;2023-05-19T00:08:56;92349.50;;;13.64;59.48
61963;BME280;47927;42.646;23.096;2023-05-19T00:11:22;92337.53;;;13.71;59.61
61963;BME280;47927;42.646;23.096;2023-05-19T00:13:48;92343.13;;;13.73;59.43
61963;BME280;47927;42.646;23.096;2023-05-19T00:16:15;92341.28;;;13.70;59.38
61963;BME280;47927;42.646;23.096;2023-05-19T00:18:41;92337.91;;;13.73;59.14
61963;BME280;47927;42.646;23.096;2023-05-19T00:21:08;92273.97;;;13.27;59.50
61963;BME280;47927;42.646;23.096;2023-05-19T00:23:33;92337.53;;;13.78;58.83
61963;BME280;47927;42.646;23.096;2023-05-19T00:25:59;92340.91;;;13.78;58.36
61963;BME280;47927;42.646;23.096;2023-05-19T00:28:24;92340.16;;;13.78;57.70
61963;BME280;47927;42.646;23.096;2023-05-19T00:30:51;92340.88;;;13.85;56.97
61963;BME280;47927;42.646;23.096;2023-05-19T00:33:16;92345.78;;;13.83;57.26
61963;BME280;47927;42.646;23.096;2023-05-19T00:35:42;92334.16;;;13.84;57.53
61963;BME280;47927;42.646;23.096;2023-05-19T00:38:07;92333.03;;;13.78;57.39
61963;BME280;47927;42.646;23.096;2023-05-19T00:40:36;92334.53;;;13.79;57.20
61963;BME280;47927;42.646;23.096;2023-05-19T00:43:01;92315.09;;;13.70;56.79
61963;BME280;47927;42.646;23.096;2023-05-19T00:45:27;92329.31;;;13.68;57.53
61963;BME280;47927;42.646;23.096;2023-05-19T00:47:53;92268.34;;;13.29;57.33
61963;BME280;47927;42.646;23.096;2023-05-19T00:50:19;92328.19;;;13.70;57.78
61963;BME280;47927;42.646;23.096;2023-05-19T00:52:45;92322.94;;;13.70;57.65
61963;BME280;47927;42.646;23.096;2023-05-19T00:55:11;92321.44;;;13.58;58.17
61963;BME280;47927;42.646;23.096;2023-05-19T00:57:38;92317.31;;;13.46;58.72
61963;BME280;47927;42.646;23.096;2023-05-19T01:00:04;92317.34;;;13.39;58.67
61963;BME280;47927;42.646;23.096;2023-05-19T01:02:30;92311.72;;;13.30;58.87
61963;BME280;47927;42.646;23.096;2023-05-19T01:04:56;92295.94;;;13.01;59.10
61963;BME280;47927;42.646;23.096;2023-05-19T01:07:23;92298.50;;;12.90;59.21
61963;BME280;47927;42.646;23.096;2023-05-19T01:09:50;92309.00;;;12.94;59.47
61963;BME280;47927;42.646;23.096;2023-05-19T01:12:22;92299.63;;;12.86;59.32
61963;BME280;47927;42.646;23.096;2023-05-19T01:14:50;92308.59;;;12.92;59.35
61963;BME280;47927;42.646;23.096;2023-05-19T01:17:28;92256.16;;;12.42;59.50
61963;BME280;47927;42.646;23.096;2023-05-19T01:20:05;92318.16;;;12.52;60.42
61963;BME280;47927;42.646;23.096;2023-05-19T01:32:59;92324.09;;;12.45;59.88
61963;BME280;47927;42.646;23.096;2023-05-19T01:35:26;92321.09;;;12.40;60.02
61963;BME280;47927;42.646;23.096;2023-05-19T01:37:55;92319.94;;;12.34;60.15
61963;BME280;47927;42.646;23.096;2023-05-19T01:40:23;92318.06;;;12.30;60.28
61963;BME280;47927;42.646;23.096;2023-05-19T01:42:55;92323.28;;;12.27;60.37
61963;BME280;47927;42.646;23.096;2023-05-19T01:45:22;92300.03;;;12.07;60.34
61963;BME280;47927;42.646;23.096;2023-05-19T01:47:52;92232.19;;;11.52;60.52
61963;BME280;47927;42.646;23.096;2023-05-19T01:50:18;92304.41;;;11.93;60.65
61963;BME280;47927;42.646;23.096;2023-05-19T01:52:44;92317.50;;;11.96;60.50
61963;BME280;47927;42.646;23.096;2023-05-19T01:55:10;92247.69;;;11.34;60.21
61963;BME280;47927;42.646;23.096;2023-05-19T01:58:08;92329.69;;;11.81;59.94
61963;BME280;47927;42.646;23.096;2023-05-19T02:03:13;92329.13;;;11.58;59.78
61963;BME280;47927;42.646;23.096;2023-05-19T02:06:41;92327.13;;;11.40;60.01
61963;BME280;47927;42.646;23.096;2023-05-19T02:12:01;92294.31;;;10.99;60.08
61963;BME280;47927;42.646;23.096;2023-05-19T02:15:23;92328.75;;;11.15;60.12
61963;BME280;47927;42.646;23.096;2023-05-19T02:17:30;92281.94;;;10.55;60.87
61963;BME280;47927;42.646;23.096;2023-05-19T02:19:57;92327.66;;;10.82;61.07
61963;BME280;47927;42.646;23.096;2023-05-19T02:22:23;92335.75;;;10.73;60.67
61963;BME280;47927;42.646;23.096;2023-05-19T02:24:48;92286.97;;;10.10;61.88
61963;BME280;47927;42.646;23.096;2023-05-19T02:27:16;92276.16;;;10.08;61.98
61963;BME280;47927;42.646;23.096;2023-05-19T02:29:42;92333.72;;;10.56;61.51
61963;BME280;47927;42.646;23.096;2023-05-19T02:32:10;92336.72;;;10.62;60.99
61963;BME280;47927;42.646;23.096;2023-05-19T02:34:35;92343.44;;;10.59;60.51
61963;BME280;47927;42.646;23.096;2023-05-19T02:37:03;92326.19;;;10.51;61.13
61963;BME280;47927;42.646;23.096;2023-05-19T02:39:28;92254.50;;;10.00;60.56
61963;BME280;47927;42.646;23.096;2023-05-19T02:42:00;92337.63;;;10.43;60.78
61963;BME280;47927;42.646;23.096;2023-05-19T02:44:25;92338.97;;;10.30;62.27
61963;BME280;47927;42.646;23.096;2023-05-19T02:46:51;92334.69;;;10.44;62.92
61963;BME280;47927;42.646;23.096;2023-05-19T02:49:16;92331.69;;;10.42;63.61
61963;BME280;47927;42.646;23.096;2023-05-19T02:51:42;92326.53;;;10.49;64.30
61963;BME280;47927;42.646;23.096;2023-05-19T02:54:08;92314.75;;;10.59;63.44
61963;BME280;47927;42.646;23.096;2023-05-19T02:56:33;92315.69;;;10.74;63.32
61963;BME280;47927;42.646;23.096;2023-05-19T02:58:59;92330.25;;;10.82;63.24
61963;BME280;47927;42.646;23.096;2023-05-19T03:01:25;92332.69;;;10.98;63.29
61963;BME280;47927;42.646;23.096;2023-05-19T03:03:50;92339.09;;;11.08;63.48
61963;BME280;47927;42.646;23.096;2023-05-19T03:06:16;92266.91;;;10.75;63.33
61963;BME280;47927;42.646;23.096;2023-05-19T03:08:42;92335.34;;;11.43;63.08
61963;BME280;47927;42.646;23.096;2023-05-19T03:11:08;92320.41;;;11.39;62.42
61963;BME280;47927;42.646;23.096;2023-05-19T03:13:33;92342.94;;;11.58;62.01
61963;BME280;47927;42.646;23.096;2023-05-19T03:16:17;92339.47;;;11.47;62.61
61963;BME280;47927;42.646;23.096;2023-05-19T03:18:44;92339.84;;;11.46;61.00
61963;BME280;47927;42.646;23.096;2023-05-19T03:21:10;92350.47;;;11.30;60.84
61963;BME280;47927;42.646;23.096;2023-05-19T03:23:35;92350.06;;;11.24;61.39
61963;BME280;47927;42.646;23.096;2023-05-19T03:26:02;92352.44;;;11.36;62.51
61963;BME280;47927;42.646;23.096;2023-05-19T03:28:27;92354.03;;;11.48;62.00
61963;BME280;47927;42.646;23.096;2023-05-19T03:30:53;92257.38;;;10.89;61.87
61963;BME280;47927;42.646;23.096;2023-05-19T03:33:22;92358.47;;;11.48;62.64
61963;BME280;47927;42.646;23.096;2023-05-19T03:35:48;92339.22;;;11.18;64.17
61963;BME280;47927;42.646;23.096;2023-05-19T03:38:14;92261.13;;;10.92;63.88
61963;BME280;47927;42.646;23.096;2023-05-19T03:40:47;92352.81;;;11.83;62.86
61963;BME280;47927;42.646;23.096;2023-05-19T03:43:13;92297.31;;;11.41;63.07
61963;BME280;47927;42.646;23.096;2023-05-19T03:45:45;92347.41;;;12.06;62.72
61963;BME280;47927;42.646;23.096;2023-05-19T03:48:39;92364.34;;;12.30;61.25
61963;BME280;47927;42.646;23.096;2023-05-19T03:51:19;92351.72;;;12.43;61.26
61963;BME280;47927;42.646;23.096;2023-05-19T03:53:46;92361.56;;;12.67;60.82
61963;BME280;47927;42.646;23.096;2023-05-19T03:56:12;92354.81;;;12.66;61.12
61963;BME280;47927;42.646;23.096;2023-05-19T03:58:39;92357.22;;;13.07;60.81
61963;BME280;47927;42.646;23.096;2023-05-19T04:01:10;92338.63;;;13.41;59.74
61963;BME280;47927;42.646;23.096;2023-05-19T04:03:35;92334.91;;;13.53;59.53
61963;BME280;47927;42.646;23.096;2023-05-19T04:06:01;92342.75;;;13.63;57.95
61963;BME280;47927;42.646;23.096;2023-05-19T04:08:26;92352.84;;;13.58;57.61
61963;BME280;47927;42.646;23.096;2023-05-19T04:10:52;92357.31;;;13.43;58.35
61963;BME280;47927;42.646;23.096;2023-05-19T04:13:17;92358.06;;;13.43;59.24
61963;BME280;47927;42.646;23.096;2023-05-19T04:15:43;92319.84;;;13.14;59.34
61963;BME280;47927;42.646;23.096;2023-05-19T04:18:08;92307.56;;;13.18;59.25
61963;BME280;47927;42.646;23.096;2023-05-19T04:20:34;92358.09;;;13.54;58.52
61963;BME280;47927;42.646;23.096;2023-05-19T04:22:59;92333.38;;;13.41;58.16
61963;BME280;47927;42.646;23.096;2023-05-19T04:25:25;92368.19;;;13.63;58.36
61963;BME280;47927;42.646;23.096;2023-05-19T04:27:52;92364.84;;;13.62;57.65
61963;BME280;47927;42.646;23.096;2023-05-19T04:30:18;92327.44;;;13.58;57.05
61963;BME280;47927;42.646;23.096;2023-05-19T04:32:47;92363.72;;;13.92;57.78
61963;BME280;47927;42.646;23.096;2023-05-19T04:35:15;92357.31;;;14.22;58.12
61963;BME280;47927;42.646;23.096;2023-05-19T04:37:43;92352.09;;;14.29;58.80
61963;BME280;47927;42.646;23.096;2023-05-19T04:40:13;92365.88;;;14.65;57.75
61963;BME280;47927;42.646;23.096;2023-05-19T04:42:39;92311.69;;;16.22;53.44
61963;BME280;47927;42.646;23.096;2023-05-19T04:45:07;92343.53;;;18.12;49.03
61963;BME280;47927;42.646;23.096;2023-05-19T04:47:35;92359.81;;;18.74;48.37
61963;BME280;47927;42.646;23.096;2023-05-19T04:50:03;92362.19;;;19.44;46.55
61963;BME280;47927;42.646;23.096;2023-05-19T04:52:29;92377.38;;;19.93;45.54
61963;BME280;47927;42.646;23.096;2023-05-19T04:54:55;92382.28;;;20.11;43.09
61963;BME280;47927;42.646;23.096;2023-05-19T04:57:25;92328.13;;;20.32;42.51
61963;BME280;47927;42.646;23.096;2023-05-19T04:59:55;92371.34;;;20.58;40.38
61963;BME280;47927;42.646;23.096;2023-05-19T05:02:29;92346.63;;;21.48;40.19
61963;BME280;47927;42.646;23.096;2023-05-19T05:04:56;92366.31;;;21.85;38.45
61963;BME280;47927;42.646;23.096;2023-05-19T05:07:23;92368.81;;;22.75;36.03
61963;BME280;47927;42.646;23.096;2023-05-19T05:09:51;92330.41;;;23.33;34.88
61963;BME280;47927;42.646;23.096;2023-05-19T05:12:17;92375.63;;;24.63;33.08
61963;BME280;47927;42.646;23.096;2023-05-19T05:14:44;92372.03;;;26.25;31.39
61963;BME280;47927;42.646;23.096;2023-05-19T05:17:11;92383.78;;;27.73;28.78
61963;BME280;47927;42.646;23.096;2023-05-19T05:19:37;92393.50;;;30.33;25.03
61963;BME280;47927;42.646;23.096;2023-05-19T05:22:04;92386.88;;;32.27;22.16
61963;BME280;47927;42.646;23.096;2023-05-19T05:24:31;92394.66;;;32.64;21.96
61963;BME280;47927;42.646;23.096;2023-05-19T05:27:00;92393.28;;;33.57;21.87
61963;BME280;47927;42.646;23.096;2023-05-19T05:29:27;92329.78;;;32.92;21.04
61963;BME280;47927;42.646;23.096;2023-05-19T05:31:52;92402.13;;;34.24;20.43
61963;BME280;47927;42.646;23.096;2023-05-19T05:34:26;92395.84;;;35.46;18.46
61963;BME280;47927;42.646;23.096;2023-05-19T05:36:53;92396.91;;;36.53;17.88
61963;BME280;47927;42.646;23.096;2023-05-19T05:39:19;92397.78;;;35.83;17.96
61963;BME280;47927;42.646;23.096;2023-05-19T05:41:44;92402.13;;;35.35;17.56
61963;BME280;47927;42.646;23.096;2023-05-19T05:44:11;92404.34;;;33.07;19.21
61963;BME280;47927;42.646;23.096;2023-05-19T05:46:39;92401.03;;;32.73;19.37
61963;BME280;47927;42.646;23.096;2023-05-19T05:49:05;92394.91;;;33.25;19.06
61963;BME280;47927;42.646;23.096;2023-05-19T05:51:32;92411.41;;;31.95;20.21
61963;BME280;47927;42.646;23.096;2023-05-19T05:53:59;92410.66;;;32.45;20.72
61963;BME280;47927;42.646;23.096;2023-05-19T05:56:31;92424.75;;;32.91;19.23
61963;BME280;47927;42.646;23.096;2023-05-19T05:58:59;92403.53;;;34.00;19.27
61963;BME280;47927;42.646;23.096;2023-05-19T06:01:24;92417.84;;;34.25;19.22
61963;BME280;47927;42.646;23.096;2023-05-19T06:04:09;92416.44;;;36.19;17.86
61963;BME280;47927;42.646;23.096;2023-05-19T06:06:34;92420.47;;;37.72;16.82
61963;BME280;47927;42.646;23.096;2023-05-19T06:09:02;92423.22;;;37.11;15.74
61963;BME280;47927;42.646;23.096;2023-05-19T06:11:28;92422.78;;;37.21;15.29
61963;BME280;47927;42.646;23.096;2023-05-19T06:13:56;92386.84;;;35.89;16.63
61963;BME280;47927;42.646;23.096;2023-05-19T06:16:41;92346.38;;;35.08;16.53
61963;BME280;47927;42.646;23.096;2023-05-19T06:19:07;92358.34;;;34.93;16.73
61963;BME280;47927;42.646;23.096;2023-05-19T06:21:33;92433.63;;;34.46;18.33
61963;BME280;47927;42.646;23.096;2023-05-19T06:23:58;92436.72;;;35.67;16.58
61963;BME280;47927;42.646;23.096;2023-05-19T06:26:24;92432.91;;;35.57;17.43
61963;BME280;47927;42.646;23.096;2023-05-19T06:28:51;92430.44;;;35.91;16.31
61963;BME280;47927;42.646;23.096;2023-05-19T06:31:16;92409.13;;;36.14;16.39
61963;BME280;47927;42.646;23.096;2023-05-19T06:33:49;92421.72;;;37.37;15.99
61963;BME280;47927;42.646;23.096;2023-05-19T06:36:15;92431.38;;;35.62;16.81
61963;BME280;47927;42.646;23.096;2023-05-19T06:38:42;92389.50;;;34.32;17.62
61963;BME280;47927;42.646;23.096;2023-05-19T06:41:08;92431.66;;;33.86;18.47
61963;BME280;47927;42.646;23.096;2023-05-19T06:43:33;92432.50;;;34.00;19.25
61963;BME280;47927;42.646;23.096;2023-05-19T06:46:02;92430.97;;;35.33;17.91
61963;BME280;47927;42.646;23.096;2023-05-19T06:48:30;92438.13;;;36.91;15.85
61963;BME280;47927;42.646;23.096;2023-05-19T06:50:57;92435.91;;;38.12;15.46
61963;BME280;47927;42.646;23.096;2023-05-19T06:53:23;92437.66;;;38.72;14.84
61963;BME280;47927;42.646;23.096;2023-05-19T06:55:50;92453.66;;;39.04;15.96
61963;BME280;47927;42.646;23.096;2023-05-19T06:58:19;92444.94;;;37.25;14.65
61963;BME280;47927;42.646;23.096;2023-05-19T07:00:44;92415.22;;;35.12;17.68
61963;BME280;47927;42.646;23.096;2023-05-19T07:03:13;92442.31;;;35.12;17.57
61963;BME280;47927;42.646;23.096;2023-05-19T07:05:38;92444.38;;;35.63;17.46
61963;BME280;47927;42.646;23.096;2023-05-19T07:08:04;92440.88;;;36.65;16.11
61963;BME280;47927;42.646;23.096;2023-05-19T07:10:30;92342.34;;;36.57;15.60
61963;BME280;47927;42.646;23.096;2023-05-19T07:12:56;92452.38;;;38.06;15.25
61963;BME280;47927;42.646;23.096;2023-05-19T07:15:25;92454.75;;;36.88;16.19
61963;BME280;47927;42.646;23.096;2023-05-19T07:17:52;92444.97;;;37.59;15.56
61963;BME280;47927;42.646;23.096;2023-05-19T07:20:17;92446.72;;;37.70;15.70
61963;BME280;47927;42.646;23.096;2023-05-19T07:22:43;92457.16;;;37.18;16.30
61963;BME280;47927;42.646;23.096;2023-05-19T07:25:09;92450.50;;;37.67;15.61
61963;BME280;47927;42.646;23.096;2023-05-19T07:27:34;92464.38;;;36.89;15.79
61963;BME280;47927;42.646;23.096;2023-05-19T07:30:00;92397.59;;;35.44;17.19
61963;BME280;47927;42.646;23.096;2023-05-19T07:32:26;92454.13;;;37.22;16.15
61963;BME280;47927;42.646;23.096;2023-05-19T07:34:52;92453.13;;;37.59;16.41
61963;BME280;47927;42.646;23.096;2023-05-19T07:37:17;92451.53;;;36.31;16.76
61963;BME280;47927;42.646;23.096;2023-05-19T07:39:43;92462.66;;;34.94;17.27
61963;BME280;47927;42.646;23.096;2023-05-19T07:42:08;92445.88;;;36.15;16.64
61963;BME280;47927;42.646;23.096;2023-05-19T07:44:34;92461.66;;;35.41;17.93
61963;BME280;47927;42.646;23.096;2023-05-19T07:47:00;92442.75;;;35.17;18.20
61963;BME280;47927;42.646;23.096;2023-05-19T07:49:25;92441.38;;;35.86;17.10
61963;BME280;47927;42.646;23.096;2023-05-19T07:51:51;92453.72;;;37.17;16.60
61963;BME280;47927;42.646;23.096;2023-05-19T07:54:17;92445.34;;;36.17;17.21
61963;BME280;47927;42.646;23.096;2023-05-19T07:56:42;92394.81;;;35.68;17.93
61963;BME280;47927;42.646;23.096;2023-05-19T07:59:08;92454.66;;;36.35;16.91
61963;BME280;47927;42.646;23.096;2023-05-19T08:01:33;92451.47;;;33.58;19.43
61963;BME280;47927;42.646;23.096;2023-05-19T08:03:59;92440.19;;;33.49;20.21
61963;BME280;47927;42.646;23.096;2023-05-19T08:06:27;92440.44;;;33.92;19.62
61963;BME280;47927;42.646;23.096;2023-05-19T08:08:54;92449.03;;;35.25;18.82
61963;BME280;47927;42.646;23.096;2023-05-19T08:11:20;92398.28;;;34.87;18.01
61963;BME280;47927;42.646;23.096;2023-05-19T08:13:45;92457.78;;;34.68;18.99
61963;BME280;47927;42.646;23.096;2023-05-19T08:16:13;92445.06;;;35.07;18.95
61963;BME280;47927;42.646;23.096;2023-05-19T08:18:39;92439.16;;;35.08;18.57
61963;BME280;47927;42.646;23.096;2023-05-19T08:21:04;92440.63;;;34.85;18.60
61963;BME280;47927;42.646;23.096;2023-05-19T08:23:30;92449.59;;;34.99;18.91
61963;BME280;47927;42.646;23.096;2023-05-19T08:25:56;92452.25;;;33.89;20.15
61963;BME280;47927;42.646;23.096;2023-05-19T08:28:21;92434.81;;;33.43;20.45
61963;BME280;47927;42.646;23.096;2023-05-19T08:30:49;92437.19;;;33.99;20.61
61963;BME280;47927;42.646;23.096;2023-05-19T08:33:15;92441.78;;;33.74;20.08
61963;BME280;47927;42.646;23.096;2023-05-19T08:35:40;92436.19;;;33.67;20.43
61963;BME280;47927;42.646;23.096;2023-05-19T08:38:07;92441.53;;;31.94;20.51
61963;BME280;47927;42.646;23.096;2023-05-19T08:40:33;92444.50;;;32.07;21.29
61963;BME280;47927;42.646;23.096;2023-05-19T08:43:01;92436.16;;;31.94;21.07
61963;BME280;47927;42.646;23.096;2023-05-19T08:45:27;92450.50;;;29.59;24.64
61963;BME280;47927;42.646;23.096;2023-05-19T08:47:54;92389.66;;;30.08;24.12
61963;BME280;47927;42.646;23.096;2023-05-19T08:50:23;92458.69;;;32.25;22.83
61963;BME280;47927;42.646;23.096;2023-05-19T08:52:54;92453.97;;;33.45;20.98
61963;BME280;47927;42.646;23.096;2023-05-19T08:58:18;92454.72;;;31.69;21.45
61963;BME280;47927;42.646;23.096;2023-05-19T09:00:47;92466.56;;;29.53;24.72
61963;BME280;47927;42.646;23.096;2023-05-19T09:03:13;92462.22;;;28.54;26.35
61963;BME280;47927;42.646;23.096;2023-05-19T09:05:40;92409.53;;;27.56;26.99
61963;BME280;47927;42.646;23.096;2023-05-19T09:08:06;92456.09;;;27.20;27.66
61963;BME280;47927;42.646;23.096;2023-05-19T09:10:32;92440.56;;;26.85;28.72
61963;BME280;47927;42.646;23.096;2023-05-19T09:12:57;92422.56;;;26.37;30.25
61963;BME280;47927;42.646;23.096;2023-05-19T09:15:26;92386.41;;;28.18;26.79
61963;BME280;47927;42.646;23.096;2023-05-19T09:18:01;92450.66;;;29.70;25.49
61963;BME280;47927;42.646;23.096;2023-05-19T09:20:29;92408.00;;;27.79;26.91
61963;BME280;47927;42.646;23.096;2023-05-19T09:22:54;92453.28;;;27.14;27.19
61963;BME280;47927;42.646;23.096;2023-05-19T09:25:22;92454.84;;;24.99;31.32
61963;BME280;47927;42.646;23.096;2023-05-19T09:27:48;92454.53;;;23.89;32.39
61963;BME280;47927;42.646;23.096;2023-05-19T09:30:18;92421.91;;;23.45;34.06
61963;BME280;47927;42.646;23.096;2023-05-19T09:32:43;92459.88;;;25.07;31.54
61963;BME280;47927;42.646;23.096;2023-05-19T09:35:12;92455.75;;;25.24;30.43
61963;BME280;47927;42.646;23.096;2023-05-19T09:37:42;92441.59;;;26.30;30.08
61963;BME280;47927;42.646;23.096;2023-05-19T09:40:08;92456.94;;;27.02;30.17
61963;BME280;47927;42.646;23.096;2023-05-19T09:42:38;92441.00;;;27.32;28.15
61963;BME280;47927;42.646;23.096;2023-05-19T09:45:05;92431.75;;;28.92;25.69
61963;BME280;47927;42.646;23.096;2023-05-19T09:47:38;92433.88;;;28.47;24.97
61963;BME280;47927;42.646;23.096;2023-05-19T09:50:09;92452.34;;;26.54;27.81
61963;BME280;47927;42.646;23.096;2023-05-19T09:52:38;92442.38;;;26.55;29.41
61963;BME280;47927;42.646;23.096;2023-05-19T09:55:08;92443.47;;;26.06;28.80
61963;BME280;47927;42.646;23.096;2023-05-19T09:57:35;92451.69;;;26.26;29.22
61963;BME280;47927;42.646;23.096;2023-05-19T10:00:03;92441.72;;;26.36;27.23
61963;BME280;47927;42.646;23.096;2023-05-19T10:02:35;92440.75;;;25.63;28.04
61963;BME280;47927;42.646;23.096;2023-05-19T10:05:02;92437.03;;;25.70;28.44
61963;BME280;47927;42.646;23.096;2023-05-19T10:07:29;92438.19;;;25.78;28.86
61963;BME280;47927;42.646;23.096;2023-05-19T10:09:55;92396.06;;;25.91;30.16
61963;BME280;47927;42.646;23.096;2023-05-19T10:12:21;92432.78;;;26.96;30.32
61963;BME280;47927;42.646;23.096;2023-05-19T10:14:48;92443.91;;;27.72;27.47
61963;BME280;47927;42.646;23.096;2023-05-19T10:17:14;92361.88;;;28.40;25.90
61963;BME280;47927;42.646;23.096;2023-05-19T10:19:40;92355.09;;;29.06;24.47
61963;BME280;47927;42.646;23.096;2023-05-19T10:22:06;92421.34;;;29.20;24.92
61963;BME280;47927;42.646;23.096;2023-05-19T10:24:31;92372.16;;;28.42;24.84
61963;BME280;47927;42.646;23.096;2023-05-19T10:27:00;92434.94;;;28.76;25.25
61963;BME280;47927;42.646;23.096;2023-05-19T10:29:38;92359.59;;;26.70;25.59
61963;BME280;47927;42.646;23.096;2023-05-19T10:32:12;92334.44;;;25.71;26.78
61963;BME280;47927;42.646;23.096;2023-05-19T10:40:09;92349.16;;;25.57;28.93
61963;BME280;47927;42.646;23.096;2023-05-19T10:45:21;92349.13;;;24.69;30.35
61963;BME280;47927;42.646;23.096;2023-05-19T10:47:51;92411.16;;;24.60;32.32
61963;BME280;47927;42.646;23.096;2023-05-19T10:50:16;92405.81;;;24.69;29.14
61963;BME280;47927;42.646;23.096;2023-05-19T10:52:42;92415.47;;;23.11;32.91
61963;BME280;47927;42.646;23.096;2023-05-19T10:55:11;92392.84;;;24.22;31.58
61963;BME280;47927;42.646;23.096;2023-05-19T10:57:54;92329.75;;;25.14;31.03
61963;BME280;47927;42.646;23.096;2023-05-19T11:00:29;92408.66;;;24.75;29.34
61963;BME280;47927;42.646;23.096;2023-05-19T11:03:15;92402.25;;;24.54;31.89
61963;BME280;47927;42.646;23.096;2023-05-19T11:05:43;92404.78;;;25.40;29.38
61963;BME280;47927;42.646;23.096;2023-05-19T11:08:10;92354.31;;;24.54;26.80
61963;BME280;47927;42.646;23.096;2023-05-19T11:10:37;92389.72;;;24.23;28.12
61963;BME280;47927;42.646;23.096;2023-05-19T11:13:03;92378.16;;;24.76;28.81
61963;BME280;47927;42.646;23.096;2023-05-19T11:15:34;92388.22;;;24.99;30.18
61963;BME280;47927;42.646;23.096;2023-05-19T11:18:01;92336.09;;;24.43;29.00
61963;BME280;47927;42.646;23.096;2023-05-19T11:20:28;92372.78;;;25.40;28.70
61963;BME280;47927;42.646;23.096;2023-05-19T11:23:08;92370.97;;;26.31;28.47
61963;BME280;47927;42.646;23.096;2023-05-19T11:28:06;92378.25;;;26.55;27.43
61963;BME280;47927;42.646;23.096;2023-05-19T11:30:33;92378.09;;;26.58;25.55
61963;BME280;47927;42.646;23.096;2023-05-19T11:32:59;92368.06;;;26.44;26.48
61963;BME280;47927;42.646;23.096;2023-05-19T11:35:25;92374.34;;;25.65;25.12
61963;BME280;47927;42.646;23.096;2023-05-19T11:37:53;92383.16;;;25.01;25.51
61963;BME280;47927;42.646;23.096;2023-05-19T11:40:20;92379.09;;;25.61;24.64
61963;BME280;47927;42.646;23.096;2023-05-19T11:43:04;92341.38;;;25.35;26.14
61963;BME280;47927;42.646;23.096;2023-05-19T11:45:30;92374.00;;;24.75;24.91
61963;BME280;47927;42.646;23.096;2023-05-19T11:47:57;92381.69;;;25.10;26.39
61963;BME280;47927;42.646;23.096;2023-05-19T11:50:24;92388.13;;;25.64;26.85
61963;BME280;47927;42.646;23.096;2023-05-19T11:52:50;92327.34;;;25.07;27.79
61963;BME280;47927;42.646;23.096;2023-05-19T11:55:17;92322.06;;;24.61;30.77
61963;BME280;47927;42.646;23.096;2023-05-19T11:58:03;92358.88;;;26.21;28.00
61963;BME280;47927;42.646;23.096;2023-05-19T12:00:33;92387.19;;;25.15;27.75
61963;BME280;47927;42.646;23.096;2023-05-19T12:03:01;92366.41;;;23.56;32.09
61963;BME280;47927;42.646;23.096;2023-05-19T12:05:27;92367.19;;;23.12;30.34
61963;BME280;47927;42.646;23.096;2023-05-19T12:08:12;92303.88;;;23.42;31.54
61963;BME280;47927;42.646;23.096;2023-05-19T12:10:38;92366.28;;;23.59;32.31
61963;BME280;47927;42.646;23.096;2023-05-19T12:13:04;92339.47;;;24.25;31.99
61963;BME280;47927;42.646;23.096;2023-05-19T12:15:32;92379.59;;;24.49;31.20
61963;BME280;47927;42.646;23.096;2023-05-19T12:17:59;92379.00;;;23.33;32.33
61963;BME280;47927;42.646;23.096;2023-05-19T12:20:25;92335.81;;;22.98;32.85
61963;BME280;47927;42.646;23.096;2023-05-19T12:22:53;92405.59;;;21.78;36.13
61963;BME280;47927;42.646;23.096;2023-05-19T12:25:19;92302.22;;;20.56;45.21
61963;BME280;47927;42.646;23.096;2023-05-19T12:27:45;92387.16;;;20.29;42.82
61963;BME280;47927;42.646;23.096;2023-05-19T12:30:12;92393.81;;;19.68;46.09
61963;BME280;47927;42.646;23.096;2023-05-19T12:32:38;92383.69;;;19.06;42.36
61963;BME280;47927;42.646;23.096;2023-05-19T12:35:04;92405.00;;;18.52;45.92
61963;BME280;47927;42.646;23.096;2023-05-19T12:37:31;92390.00;;;18.49;47.91
61963;BME280;47927;42.646;23.096;2023-05-19T12:39:58;92351.84;;;18.54;48.13
61963;BME280;47927;42.646;23.096;2023-05-19T12:42:28;92433.28;;;18.28;46.88
61963;BME280;47927;42.646;23.096;2023-05-19T12:45:20;92420.06;;;17.20;50.53
61963;BME280;47927;42.646;23.096;2023-05-19T12:47:48;92388.56;;;17.09;50.86
61963;BME280;47927;42.646;23.096;2023-05-19T12:50:14;92420.53;;;17.11;51.16
61963;BME280;47927;42.646;23.096;2023-05-19T12:55:08;92374.31;;;16.72;50.34
61963;BME280;47927;42.646;23.096;2023-05-19T12:57:43;92429.38;;;16.49;53.67
61963;BME280;47927;42.646;23.096;2023-05-19T13:00:13;92428.56;;;16.55;54.33
61963;BME280;47927;42.646;23.096;2023-05-19T13:03:00;92420.91;;;16.68;53.56
61963;BME280;47927;42.646;23.096;2023-05-19T13:05:28;92410.53;;;16.95;50.75
61963;BME280;47927;42.646;23.096;2023-05-19T13:07:55;92413.19;;;16.92;51.15
61963;BME280;47927;42.646;23.096;2023-05-19T13:10:22;92420.22;;;17.05;50.79
61963;BME280;47927;42.646;23.096;2023-05-19T13:12:47;92358.91;;;17.36;51.66
61963;BME280;47927;42.646;23.096;2023-05-19T13:15:13;92389.63;;;18.47;50.25
61963;BME280;47927;42.646;23.096;2023-05-19T13:17:39;92357.19;;;18.50;48.19
61963;BME280;47927;42.646;23.096;2023-05-19T13:20:05;92375.56;;;18.97;48.49
61963;BME280;47927;42.646;23.096;2023-05-19T13:22:30;92340.47;;;18.80;48.41
61963;BME280;47927;42.646;23.096;2023-05-19T13:24:56;92364.97;;;18.81;47.11
61963;BME280;47927;42.646;23.096;2023-05-19T13:27:26;92387.28;;;18.53;43.94